sensor_id;sensor_type;location;lat;lon;timestamp;P1;durP1;ratioP1;P2;durP2;ratioP2
11189;SDS011;5651;50.926;4.718;2022-10-16T00:01:21;4.60;;;1.73;;
11189;SDS011;5651;50.926;4.718;2022-10-16T00:03:52;4.40;;;1.45;;
11189;SDS011;5651;50.926;4.718;2022-10-16T00:06:19;2.60;;;1.60;;
11189;SDS011;5651;50.926;4.718;2022-10-16T00:08:46;2.97;;;1.48;;
11189;SDS011;5651;50.926;4.718;2022-10-16T00:11:17;3.95;;;1.45;;
11189;SDS011;5651;50.926;4.718;2022-10-16T00:13:55;2.20;;;1.30;;
11189;SDS011;5651;50.926;4.718;2022-10-16T00:16:23;2.65;;;1.67;;
11189;SDS011;5651;50.926;4.718;2022-10-16T00:18:50;4.97;;;1.70;;
11189;SDS011;5651;50.926;4.718;2022-10-16T00:21:17;4.32;;;1.70;;
11189;SDS011;5651;50.926;4.718;2022-10-16T00:23:49;2.10;;;1.65;;
11189;SDS011;5651;50.926;4.718;2022-10-16T00:26:20;6.35;;;1.33;;
11189;SDS011;5651;50.926;4.718;2022-10-16T00:28:51;3.20;;;1.70;;
11189;SDS011;5651;50.926;4.718;2022-10-16T00:31:18;3.03;;;1.33;;
11189;SDS011;5651;50.926;4.718;2022-10-16T00:33:45;4.47;;;1.33;;
11189;SDS011;5651;50.926;4.718;2022-10-16T00:36:12;1.95;;;1.17;;
11189;SDS011;5651;50.926;4.718;2022-10-16T00:38:39;2.97;;;1.30;;
11189;SDS011;5651;50.926;4.718;2022-10-16T00:41:06;1.98;;;1.23;;
11189;SDS011;5651;50.926;4.718;2022-10-16T00:46:04;4.45;;;1.25;;
11189;SDS011;5651;50.926;4.718;2022-10-16T00:48:38;3.17;;;1.55;;
11189;SDS011;5651;50.926;4.718;2022-10-16T00:51:04;2.92;;;1.50;;
11189;SDS011;5651;50.926;4.718;2022-10-16T00:53:33;2.20;;;1.30;;
11189;SDS011;5651;50.926;4.718;2022-10-16T00:56:00;4.05;;;1.63;;
11189;SDS011;5651;50.926;4.718;2022-10-16T00:58:26;4.63;;;1.40;;
11189;SDS011;5651;50.926;4.718;2022-10-16T01:00:52;2.25;;;1.40;;
11189;SDS011;5651;50.926;4.718;2022-10-16T01:03:28;4.80;;;1.40;;
11189;SDS011;5651;50.926;4.718;2022-10-16T01:08:39;3.83;;;1.48;;
11189;SDS011;5651;50.926;4.718;2022-10-16T01:11:17;2.75;;;1.17;;
11189;SDS011;5651;50.926;4.718;2022-10-16T01:13:55;3.45;;;1.40;;
11189;SDS011;5651;50.926;4.718;2022-10-16T01:21:29;3.67;;;1.55;;
11189;SDS011;5651;50.926;4.718;2022-10-16T01:32:15;4.00;;;1.45;;
11189;SDS011;5651;50.926;4.718;2022-10-16T01:34:42;2.05;;;1.33;;
11189;SDS011;5651;50.926;4.718;2022-10-16T01:37:31;2.63;;;1.50;;
11189;SDS011;5651;50.926;4.718;2022-10-16T01:40:23;5.38;;;2.55;;
11189;SDS011;5651;50.926;4.718;2022-10-16T01:42:53;2.67;;;1.60;;
11189;SDS011;5651;50.926;4.718;2022-10-16T01:45:24;1.52;;;1.17;;
11189;SDS011;5651;50.926;4.718;2022-10-16T01:47:50;2.92;;;1.75;;
11189;SDS011;5651;50.926;4.718;2022-10-16T01:50:18;2.28;;;1.33;;
11189;SDS011;5651;50.926;4.718;2022-10-16T01:52:48;3.70;;;1.80;;
11189;SDS011;5651;50.926;4.718;2022-10-16T01:55:24;3.25;;;1.50;;
11189;SDS011;5651;50.926;4.718;2022-10-16T01:57:54;2.70;;;1.20;;
11189;SDS011;5651;50.926;4.718;2022-10-16T02:00:22;3.70;;;1.60;;
11189;SDS011;5651;50.926;4.718;2022-10-16T02:02:50;3.20;;;1.48;;
11189;SDS011;5651;50.926;4.718;2022-10-16T02:08:19;2.35;;;1.58;;
11189;SDS011;5651;50.926;4.718;2022-10-16T02:10:47;3.40;;;1.70;;
11189;SDS011;5651;50.926;4.718;2022-10-16T02:13:17;4.15;;;2.15;;
11189;SDS011;5651;50.926;4.718;2022-10-16T02:15:47;4.13;;;1.50;;
11189;SDS011;5651;50.926;4.718;2022-10-16T02:18:13;3.50;;;1.88;;
11189;SDS011;5651;50.926;4.718;2022-10-16T02:20:50;4.60;;;1.58;;
11189;SDS011;5651;50.926;4.718;2022-10-16T02:23:24;4.20;;;1.50;;
11189;SDS011;5651;50.926;4.718;2022-10-16T02:25:58;4.07;;;1.70;;
11189;SDS011;5651;50.926;4.718;2022-10-16T02:28:31;3.97;;;1.80;;
11189;SDS011;5651;50.926;4.718;2022-10-16T02:31:13;3.97;;;1.65;;
11189;SDS011;5651;50.926;4.718;2022-10-16T02:33:43;2.28;;;1.77;;
11189;SDS011;5651;50.926;4.718;2022-10-16T02:36:11;3.17;;;1.70;;
11189;SDS011;5651;50.926;4.718;2022-10-16T02:38:38;3.75;;;1.60;;
11189;SDS011;5651;50.926;4.718;2022-10-16T02:41:05;2.78;;;1.70;;
11189;SDS011;5651;50.926;4.718;2022-10-16T02:43:31;2.72;;;1.70;;
11189;SDS011;5651;50.926;4.718;2022-10-16T02:45:58;2.90;;;1.58;;
11189;SDS011;5651;50.926;4.718;2022-10-16T02:48:25;3.22;;;1.83;;
11189;SDS011;5651;50.926;4.718;2022-10-16T02:50:50;3.78;;;1.45;;
11189;SDS011;5651;50.926;4.718;2022-10-16T02:53:16;2.92;;;1.75;;
11189;SDS011;5651;50.926;4.718;2022-10-16T02:55:42;4.90;;;1.75;;
11189;SDS011;5651;50.926;4.718;2022-10-16T02:58:08;5.60;;;1.70;;
11189;SDS011;5651;50.926;4.718;2022-10-16T03:00:34;2.22;;;1.65;;
11189;SDS011;5651;50.926;4.718;2022-10-16T03:02:59;2.45;;;1.77;;
11189;SDS011;5651;50.926;4.718;2022-10-16T03:05:25;5.65;;;1.92;;
11189;SDS011;5651;50.926;4.718;2022-10-16T03:07:51;6.55;;;2.45;;
11189;SDS011;5651;50.926;4.718;2022-10-16T03:10:18;4.68;;;2.03;;
11189;SDS011;5651;50.926;4.718;2022-10-16T03:12:44;4.57;;;1.88;;
11189;SDS011;5651;50.926;4.718;2022-10-16T03:15:10;7.30;;;2.78;;
11189;SDS011;5651;50.926;4.718;2022-10-16T03:17:35;5.43;;;1.60;;
11189;SDS011;5651;50.926;4.718;2022-10-16T03:20:01;2.83;;;1.67;;
11189;SDS011;5651;50.926;4.718;2022-10-16T03:22:28;3.83;;;1.85;;
11189;SDS011;5651;50.926;4.718;2022-10-16T03:24:54;6.28;;;2.20;;
11189;SDS011;5651;50.926;4.718;2022-10-16T03:27:19;3.75;;;1.70;;
11189;SDS011;5651;50.926;4.718;2022-10-16T03:29:45;3.65;;;1.98;;
11189;SDS011;5651;50.926;4.718;2022-10-16T03:32:11;4.40;;;2.30;;
11189;SDS011;5651;50.926;4.718;2022-10-16T03:34:36;4.03;;;2.30;;
11189;SDS011;5651;50.926;4.718;2022-10-16T03:37:02;4.80;;;2.08;;
11189;SDS011;5651;50.926;4.718;2022-10-16T03:39:28;2.75;;;2.22;;
11189;SDS011;5651;50.926;4.718;2022-10-16T03:41:53;5.43;;;2.25;;
11189;SDS011;5651;50.926;4.718;2022-10-16T03:44:19;3.03;;;2.30;;
11189;SDS011;5651;50.926;4.718;2022-10-16T03:46:45;3.97;;;2.10;;
11189;SDS011;5651;50.926;4.718;2022-10-16T03:49:11;4.25;;;1.95;;
11189;SDS011;5651;50.926;4.718;2022-10-16T03:51:37;3.95;;;2.22;;
11189;SDS011;5651;50.926;4.718;2022-10-16T03:54:02;4.25;;;2.10;;
11189;SDS011;5651;50.926;4.718;2022-10-16T03:56:28;3.83;;;2.08;;
11189;SDS011;5651;50.926;4.718;2022-10-16T03:58:54;5.70;;;2.15;;
11189;SDS011;5651;50.926;4.718;2022-10-16T04:01:20;3.80;;;2.35;;
11189;SDS011;5651;50.926;4.718;2022-10-16T04:03:45;7.00;;;2.50;;
11189;SDS011;5651;50.926;4.718;2022-10-16T04:06:11;5.00;;;2.30;;
11189;SDS011;5651;50.926;4.718;2022-10-16T04:08:37;3.03;;;2.00;;
11189;SDS011;5651;50.926;4.718;2022-10-16T04:11:04;3.88;;;1.98;;
11189;SDS011;5651;50.926;4.718;2022-10-16T04:13:30;3.72;;;2.15;;
11189;SDS011;5651;50.926;4.718;2022-10-16T04:15:56;5.38;;;2.85;;
11189;SDS011;5651;50.926;4.718;2022-10-16T04:18:21;2.88;;;2.13;;
11189;SDS011;5651;50.926;4.718;2022-10-16T04:20:47;4.05;;;2.13;;
11189;SDS011;5651;50.926;4.718;2022-10-16T04:23:13;3.22;;;2.10;;
11189;SDS011;5651;50.926;4.718;2022-10-16T04:25:38;4.63;;;1.92;;
11189;SDS011;5651;50.926;4.718;2022-10-16T04:28:04;5.47;;;2.20;;
11189;SDS011;5651;50.926;4.718;2022-10-16T04:30:30;4.25;;;2.30;;
11189;SDS011;5651;50.926;4.718;2022-10-16T04:32:56;3.95;;;2.63;;
11189;SDS011;5651;50.926;4.718;2022-10-16T04:35:22;4.90;;;2.33;;
11189;SDS011;5651;50.926;4.718;2022-10-16T04:37:48;6.35;;;3.38;;
11189;SDS011;5651;50.926;4.718;2022-10-16T04:40:13;3.78;;;2.10;;
11189;SDS011;5651;50.926;4.718;2022-10-16T04:42:39;7.20;;;2.25;;
11189;SDS011;5651;50.926;4.718;2022-10-16T04:45:06;4.35;;;2.13;;
11189;SDS011;5651;50.926;4.718;2022-10-16T04:47:33;5.75;;;2.40;;
11189;SDS011;5651;50.926;4.718;2022-10-16T04:49:59;4.50;;;2.20;;
11189;SDS011;5651;50.926;4.718;2022-10-16T04:52:28;4.95;;;2.65;;
11189;SDS011;5651;50.926;4.718;2022-10-16T04:54:53;6.65;;;2.35;;
11189;SDS011;5651;50.926;4.718;2022-10-16T04:57:20;3.25;;;2.35;;
11189;SDS011;5651;50.926;4.718;2022-10-16T04:59:46;4.97;;;3.15;;
11189;SDS011;5651;50.926;4.718;2022-10-16T05:02:12;7.13;;;3.20;;
11189;SDS011;5651;50.926;4.718;2022-10-16T05:04:37;3.92;;;2.50;;
11189;SDS011;5651;50.926;4.718;2022-10-16T05:07:03;5.65;;;2.70;;
11189;SDS011;5651;50.926;4.718;2022-10-16T05:09:29;5.85;;;2.55;;
11189;SDS011;5651;50.926;4.718;2022-10-16T05:11:55;5.75;;;2.60;;
11189;SDS011;5651;50.926;4.718;2022-10-16T05:14:21;5.43;;;3.17;;
11189;SDS011;5651;50.926;4.718;2022-10-16T05:16:46;4.18;;;2.58;;
11189;SDS011;5651;50.926;4.718;2022-10-16T05:19:13;4.82;;;2.60;;
11189;SDS011;5651;50.926;4.718;2022-10-16T05:21:39;6.50;;;2.97;;
11189;SDS011;5651;50.926;4.718;2022-10-16T05:24:04;5.38;;;2.60;;
11189;SDS011;5651;50.926;4.718;2022-10-16T05:26:30;3.78;;;2.40;;
11189;SDS011;5651;50.926;4.718;2022-10-16T05:28:56;7.35;;;2.72;;
11189;SDS011;5651;50.926;4.718;2022-10-16T05:31:22;6.03;;;2.63;;
11189;SDS011;5651;50.926;4.718;2022-10-16T05:33:47;4.03;;;2.50;;
11189;SDS011;5651;50.926;4.718;2022-10-16T05:36:14;5.78;;;2.60;;
11189;SDS011;5651;50.926;4.718;2022-10-16T05:38:39;5.53;;;2.50;;
11189;SDS011;5651;50.926;4.718;2022-10-16T05:41:05;6.18;;;2.72;;
11189;SDS011;5651;50.926;4.718;2022-10-16T05:43:31;3.97;;;2.80;;
11189;SDS011;5651;50.926;4.718;2022-10-16T05:45:59;6.57;;;3.45;;
11189;SDS011;5651;50.926;4.718;2022-10-16T05:48:37;4.90;;;2.90;;
11189;SDS011;5651;50.926;4.718;2022-10-16T05:51:03;5.90;;;2.97;;
11189;SDS011;5651;50.926;4.718;2022-10-16T05:53:32;5.13;;;3.00;;
11189;SDS011;5651;50.926;4.718;2022-10-16T05:55:59;7.70;;;2.60;;
11189;SDS011;5651;50.926;4.718;2022-10-16T05:58:30;6.38;;;2.97;;
11189;SDS011;5651;50.926;4.718;2022-10-16T06:00:59;6.60;;;2.50;;
11189;SDS011;5651;50.926;4.718;2022-10-16T06:03:26;6.50;;;2.70;;
11189;SDS011;5651;50.926;4.718;2022-10-16T06:05:53;7.05;;;2.97;;
11189;SDS011;5651;50.926;4.718;2022-10-16T06:08:19;6.57;;;3.28;;
11189;SDS011;5651;50.926;4.718;2022-10-16T06:10:47;5.75;;;2.80;;
11189;SDS011;5651;50.926;4.718;2022-10-16T06:13:14;8.38;;;3.60;;
11189;SDS011;5651;50.926;4.718;2022-10-16T06:15:41;9.93;;;4.05;;
11189;SDS011;5651;50.926;4.718;2022-10-16T06:18:08;9.30;;;3.95;;
11189;SDS011;5651;50.926;4.718;2022-10-16T06:20:34;9.18;;;4.40;;
11189;SDS011;5651;50.926;4.718;2022-10-16T06:23:01;7.50;;;3.50;;
11189;SDS011;5651;50.926;4.718;2022-10-16T06:25:27;5.38;;;3.80;;
11189;SDS011;5651;50.926;4.718;2022-10-16T06:27:52;5.78;;;3.60;;
11189;SDS011;5651;50.926;4.718;2022-10-16T06:30:18;7.05;;;3.58;;
11189;SDS011;5651;50.926;4.718;2022-10-16T06:32:44;9.43;;;2.80;;
11189;SDS011;5651;50.926;4.718;2022-10-16T06:35:09;8.52;;;3.50;;
11189;SDS011;5651;50.926;4.718;2022-10-16T06:37:35;10.40;;;4.72;;
11189;SDS011;5651;50.926;4.718;2022-10-16T06:40:01;6.95;;;3.85;;
11189;SDS011;5651;50.926;4.718;2022-10-16T06:42:29;7.13;;;3.17;;
11189;SDS011;5651;50.926;4.718;2022-10-16T06:44:55;10.55;;;4.03;;
11189;SDS011;5651;50.926;4.718;2022-10-16T06:47:21;6.75;;;4.00;;
11189;SDS011;5651;50.926;4.718;2022-10-16T06:49:47;6.85;;;4.05;;
11189;SDS011;5651;50.926;4.718;2022-10-16T06:52:12;6.63;;;3.60;;
11189;SDS011;5651;50.926;4.718;2022-10-16T06:54:38;5.55;;;3.20;;
11189;SDS011;5651;50.926;4.718;2022-10-16T06:57:04;7.10;;;3.80;;
11189;SDS011;5651;50.926;4.718;2022-10-16T06:59:30;5.85;;;2.90;;
11189;SDS011;5651;50.926;4.718;2022-10-16T07:01:56;6.30;;;3.08;;
11189;SDS011;5651;50.926;4.718;2022-10-16T07:04:22;7.38;;;4.05;;
11189;SDS011;5651;50.926;4.718;2022-10-16T07:06:48;8.43;;;3.97;;
11189;SDS011;5651;50.926;4.718;2022-10-16T07:09:13;6.82;;;3.70;;
11189;SDS011;5651;50.926;4.718;2022-10-16T07:11:39;13.68;;;6.57;;
11189;SDS011;5651;50.926;4.718;2022-10-16T07:14:12;5.40;;;3.00;;
11189;SDS011;5651;50.926;4.718;2022-10-16T07:16:43;11.00;;;3.72;;
11189;SDS011;5651;50.926;4.718;2022-10-16T07:19:09;10.25;;;3.40;;
11189;SDS011;5651;50.926;4.718;2022-10-16T07:21:37;7.57;;;4.30;;
11189;SDS011;5651;50.926;4.718;2022-10-16T07:24:07;8.60;;;3.60;;
11189;SDS011;5651;50.926;4.718;2022-10-16T07:26:38;9.85;;;4.07;;
11189;SDS011;5651;50.926;4.718;2022-10-16T07:29:05;8.35;;;3.20;;
11189;SDS011;5651;50.926;4.718;2022-10-16T07:31:32;11.70;;;4.95;;
11189;SDS011;5651;50.926;4.718;2022-10-16T07:33:59;12.82;;;4.65;;
11189;SDS011;5651;50.926;4.718;2022-10-16T07:36:25;11.30;;;4.70;;
11189;SDS011;5651;50.926;4.718;2022-10-16T07:38:52;10.95;;;4.32;;
11189;SDS011;5651;50.926;4.718;2022-10-16T07:41:19;6.72;;;3.50;;
11189;SDS011;5651;50.926;4.718;2022-10-16T07:43:46;8.15;;;3.78;;
11189;SDS011;5651;50.926;4.718;2022-10-16T07:46:13;7.82;;;4.35;;
11189;SDS011;5651;50.926;4.718;2022-10-16T07:48:39;6.45;;;3.63;;
11189;SDS011;5651;50.926;4.718;2022-10-16T07:51:06;4.57;;;3.10;;
11189;SDS011;5651;50.926;4.718;2022-10-16T07:53:33;5.72;;;3.00;;
11189;SDS011;5651;50.926;4.718;2022-10-16T07:55:59;8.07;;;3.22;;
11189;SDS011;5651;50.926;4.718;2022-10-16T07:58:30;4.78;;;2.72;;
11189;SDS011;5651;50.926;4.718;2022-10-16T08:00:56;6.18;;;2.95;;
11189;SDS011;5651;50.926;4.718;2022-10-16T08:03:23;7.43;;;3.70;;
11189;SDS011;5651;50.926;4.718;2022-10-16T08:05:50;6.90;;;3.25;;
11189;SDS011;5651;50.926;4.718;2022-10-16T08:08:17;12.30;;;5.90;;
11189;SDS011;5651;50.926;4.718;2022-10-16T08:10:44;18.65;;;6.78;;
11189;SDS011;5651;50.926;4.718;2022-10-16T08:13:10;8.57;;;3.00;;
11189;SDS011;5651;50.926;4.718;2022-10-16T08:15:36;5.72;;;2.55;;
11189;SDS011;5651;50.926;4.718;2022-10-16T08:18:03;8.57;;;3.40;;
11189;SDS011;5651;50.926;4.718;2022-10-16T08:20:30;13.68;;;2.90;;
11189;SDS011;5651;50.926;4.718;2022-10-16T08:22:56;8.25;;;2.95;;
11189;SDS011;5651;50.926;4.718;2022-10-16T08:25:22;5.68;;;2.92;;
11189;SDS011;5651;50.926;4.718;2022-10-16T08:27:49;10.15;;;2.63;;
11189;SDS011;5651;50.926;4.718;2022-10-16T08:30:16;10.35;;;2.70;;
11189;SDS011;5651;50.926;4.718;2022-10-16T08:32:43;7.78;;;2.80;;
11189;SDS011;5651;50.926;4.718;2022-10-16T08:35:10;9.00;;;3.33;;
11189;SDS011;5651;50.926;4.718;2022-10-16T08:37:37;7.03;;;2.63;;
11189;SDS011;5651;50.926;4.718;2022-10-16T08:40:04;5.90;;;2.92;;
11189;SDS011;5651;50.926;4.718;2022-10-16T08:45:39;4.07;;;1.90;;
11189;SDS011;5651;50.926;4.718;2022-10-16T08:50:54;8.27;;;2.55;;
11189;SDS011;5651;50.926;4.718;2022-10-16T08:53:22;10.73;;;4.35;;
11189;SDS011;5651;50.926;4.718;2022-10-16T08:55:53;6.68;;;2.53;;
11189;SDS011;5651;50.926;4.718;2022-10-16T08:58:21;8.07;;;2.50;;
11189;SDS011;5651;50.926;4.718;2022-10-16T09:01:00;4.70;;;2.42;;
11189;SDS011;5651;50.926;4.718;2022-10-16T09:03:41;5.38;;;2.38;;
11189;SDS011;5651;50.926;4.718;2022-10-16T09:14:17;5.68;;;2.60;;
11189;SDS011;5651;50.926;4.718;2022-10-16T09:17:14;4.43;;;1.90;;
11189;SDS011;5651;50.926;4.718;2022-10-16T09:19:46;8.38;;;2.28;;
11189;SDS011;5651;50.926;4.718;2022-10-16T09:22:19;8.93;;;1.90;;
11189;SDS011;5651;50.926;4.718;2022-10-16T09:24:50;6.05;;;2.00;;
11189;SDS011;5651;50.926;4.718;2022-10-16T09:27:16;5.38;;;1.60;;
11189;SDS011;5651;50.926;4.718;2022-10-16T09:29:41;9.18;;;2.55;;
11189;SDS011;5651;50.926;4.718;2022-10-16T09:32:10;3.92;;;1.50;;
11189;SDS011;5651;50.926;4.718;2022-10-16T09:34:41;6.57;;;1.75;;
11189;SDS011;5651;50.926;4.718;2022-10-16T09:37:12;3.10;;;1.15;;
11189;SDS011;5651;50.926;4.718;2022-10-16T09:39:47;5.50;;;1.60;;
11189;SDS011;5651;50.926;4.718;2022-10-16T09:42:30;4.95;;;1.60;;
11189;SDS011;5651;50.926;4.718;2022-10-16T09:44:58;7.53;;;1.70;;
11189;SDS011;5651;50.926;4.718;2022-10-16T09:47:24;7.97;;;3.05;;
11189;SDS011;5651;50.926;4.718;2022-10-16T09:49:53;7.85;;;3.17;;
11189;SDS011;5651;50.926;4.718;2022-10-16T09:52:20;5.80;;;1.58;;
11189;SDS011;5651;50.926;4.718;2022-10-16T09:54:51;6.60;;;1.48;;
11189;SDS011;5651;50.926;4.718;2022-10-16T09:57:19;7.78;;;1.50;;
11189;SDS011;5651;50.926;4.718;2022-10-16T09:59:55;4.45;;;1.60;;
11189;SDS011;5651;50.926;4.718;2022-10-16T10:02:28;3.42;;;1.30;;
11189;SDS011;5651;50.926;4.718;2022-10-16T10:07:26;5.00;;;1.13;;
11189;SDS011;5651;50.926;4.718;2022-10-16T10:10:05;6.50;;;1.55;;
11189;SDS011;5651;50.926;4.718;2022-10-16T10:12:44;5.88;;;1.60;;
11189;SDS011;5651;50.926;4.718;2022-10-16T10:15:11;4.90;;;1.52;;
11189;SDS011;5651;50.926;4.718;2022-10-16T10:17:50;6.65;;;1.48;;
11189;SDS011;5651;50.926;4.718;2022-10-16T10:25:24;15.13;;;5.72;;
11189;SDS011;5651;50.926;4.718;2022-10-16T10:36:16;4.45;;;2.83;;
11189;SDS011;5651;50.926;4.718;2022-10-16T10:41:57;6.53;;;3.05;;
11189;SDS011;5651;50.926;4.718;2022-10-16T11:11:35;6.82;;;2.45;;
11189;SDS011;5651;50.926;4.718;2022-10-16T11:14:06;8.07;;;2.97;;
11189;SDS011;5651;50.926;4.718;2022-10-16T11:16:39;5.13;;;1.65;;
11189;SDS011;5651;50.926;4.718;2022-10-16T11:27:37;5.25;;;2.75;;
11189;SDS011;5651;50.926;4.718;2022-10-16T11:38:32;5.43;;;2.00;;
11189;SDS011;5651;50.926;4.718;2022-10-16T11:41:09;5.25;;;1.73;;
11189;SDS011;5651;50.926;4.718;2022-10-16T11:44:02;5.47;;;1.95;;
11189;SDS011;5651;50.926;4.718;2022-10-16T11:50:01;7.22;;;1.92;;
11189;SDS011;5651;50.926;4.718;2022-10-16T11:52:36;7.10;;;2.00;;
11189;SDS011;5651;50.926;4.718;2022-10-16T11:55:20;4.40;;;1.50;;
11189;SDS011;5651;50.926;4.718;2022-10-16T11:57:57;7.00;;;2.13;;
11189;SDS011;5651;50.926;4.718;2022-10-16T12:08:12;2.58;;;1.42;;
11189;SDS011;5651;50.926;4.718;2022-10-16T12:10:41;5.78;;;1.70;;
11189;SDS011;5651;50.926;4.718;2022-10-16T12:18:30;6.43;;;1.83;;
11189;SDS011;5651;50.926;4.718;2022-10-16T12:20:57;9.93;;;2.95;;
11189;SDS011;5651;50.926;4.718;2022-10-16T12:23:29;5.75;;;1.80;;
11189;SDS011;5651;50.926;4.718;2022-10-16T12:25:56;7.03;;;2.13;;
11189;SDS011;5651;50.926;4.718;2022-10-16T12:28:31;5.00;;;1.55;;
11189;SDS011;5651;50.926;4.718;2022-10-16T12:31:02;3.80;;;1.70;;
11189;SDS011;5651;50.926;4.718;2022-10-16T12:33:31;6.93;;;1.60;;
11189;SDS011;5651;50.926;4.718;2022-10-16T12:36:00;5.13;;;1.70;;
11189;SDS011;5651;50.926;4.718;2022-10-16T12:38:32;4.07;;;1.23;;
11189;SDS011;5651;50.926;4.718;2022-10-16T12:41:06;6.53;;;1.40;;
11189;SDS011;5651;50.926;4.718;2022-10-16T12:46:05;6.07;;;1.35;;
11189;SDS011;5651;50.926;4.718;2022-10-16T12:48:34;2.40;;;1.10;;
11189;SDS011;5651;50.926;4.718;2022-10-16T12:56:45;3.53;;;1.50;;
11189;SDS011;5651;50.926;4.718;2022-10-16T12:59:38;5.47;;;1.75;;
11189;SDS011;5651;50.926;4.718;2022-10-16T13:02:18;5.72;;;1.20;;
11189;SDS011;5651;50.926;4.718;2022-10-16T13:16:18;4.70;;;1.65;;
11189;SDS011;5651;50.926;4.718;2022-10-16T13:21:00;5.45;;;1.88;;
11189;SDS011;5651;50.926;4.718;2022-10-16T13:23:36;4.03;;;1.50;;
11189;SDS011;5651;50.926;4.718;2022-10-16T13:26:34;3.85;;;1.60;;
11189;SDS011;5651;50.926;4.718;2022-10-16T13:29:04;3.63;;;1.27;;
11189;SDS011;5651;50.926;4.718;2022-10-16T13:31:30;4.53;;;1.27;;
11189;SDS011;5651;50.926;4.718;2022-10-16T13:33:59;4.78;;;1.48;;
11189;SDS011;5651;50.926;4.718;2022-10-16T13:36:27;2.88;;;1.40;;
11189;SDS011;5651;50.926;4.718;2022-10-16T13:39:11;4.57;;;1.88;;
11189;SDS011;5651;50.926;4.718;2022-10-16T13:44:25;4.57;;;1.50;;
11189;SDS011;5651;50.926;4.718;2022-10-16T13:46:58;4.93;;;1.35;;
11189;SDS011;5651;50.926;4.718;2022-10-16T13:49:25;5.70;;;1.55;;
11189;SDS011;5651;50.926;4.718;2022-10-16T13:51:54;8.40;;;1.67;;
11189;SDS011;5651;50.926;4.718;2022-10-16T13:54:22;7.05;;;1.85;;
11189;SDS011;5651;50.926;4.718;2022-10-16T13:56:49;3.60;;;1.33;;
11189;SDS011;5651;50.926;4.718;2022-10-16T13:59:24;7.97;;;1.83;;
11189;SDS011;5651;50.926;4.718;2022-10-16T14:01:52;6.47;;;1.73;;
11189;SDS011;5651;50.926;4.718;2022-10-16T14:04:21;5.03;;;1.95;;
11189;SDS011;5651;50.926;4.718;2022-10-16T14:06:49;4.22;;;1.30;;
11189;SDS011;5651;50.926;4.718;2022-10-16T14:09:28;5.43;;;1.48;;
11189;SDS011;5651;50.926;4.718;2022-10-16T14:11:56;7.35;;;1.42;;
11189;SDS011;5651;50.926;4.718;2022-10-16T14:14:26;7.25;;;1.75;;
11189;SDS011;5651;50.926;4.718;2022-10-16T14:16:55;6.35;;;1.50;;
11189;SDS011;5651;50.926;4.718;2022-10-16T14:19:22;3.67;;;1.45;;
11189;SDS011;5651;50.926;4.718;2022-10-16T14:21:50;4.38;;;1.52;;
11189;SDS011;5651;50.926;4.718;2022-10-16T14:24:27;5.50;;;1.90;;
11189;SDS011;5651;50.926;4.718;2022-10-16T14:26:58;5.50;;;1.65;;
11189;SDS011;5651;50.926;4.718;2022-10-16T14:29:26;3.47;;;1.80;;
11189;SDS011;5651;50.926;4.718;2022-10-16T14:32:01;6.68;;;1.48;;
11189;SDS011;5651;50.926;4.718;2022-10-16T14:34:38;4.90;;;1.52;;
11189;SDS011;5651;50.926;4.718;2022-10-16T14:37:07;4.00;;;1.30;;
11189;SDS011;5651;50.926;4.718;2022-10-16T14:42:05;4.82;;;1.50;;
11189;SDS011;5651;50.926;4.718;2022-10-16T14:44:41;4.63;;;1.48;;
11189;SDS011;5651;50.926;4.718;2022-10-16T14:47:08;8.30;;;1.90;;
11189;SDS011;5651;50.926;4.718;2022-10-16T14:49:38;4.70;;;1.67;;
11189;SDS011;5651;50.926;4.718;2022-10-16T14:52:08;6.53;;;1.48;;
11189;SDS011;5651;50.926;4.718;2022-10-16T14:54:35;4.82;;;1.30;;
11189;SDS011;5651;50.926;4.718;2022-10-16T14:57:01;4.70;;;1.60;;
11189;SDS011;5651;50.926;4.718;2022-10-16T14:59:37;5.32;;;1.85;;
11189;SDS011;5651;50.926;4.718;2022-10-16T15:02:23;5.63;;;1.38;;
11189;SDS011;5651;50.926;4.718;2022-10-16T15:04:53;6.13;;;1.95;;
11189;SDS011;5651;50.926;4.718;2022-10-16T15:07:19;5.78;;;1.98;;
11189;SDS011;5651;50.926;4.718;2022-10-16T15:09:44;5.82;;;2.40;;
11189;SDS011;5651;50.926;4.718;2022-10-16T15:12:10;8.82;;;2.60;;
11189;SDS011;5651;50.926;4.718;2022-10-16T15:14:36;6.80;;;2.30;;
11189;SDS011;5651;50.926;4.718;2022-10-16T15:17:02;3.92;;;2.35;;
11189;SDS011;5651;50.926;4.718;2022-10-16T15:19:28;5.00;;;2.17;;
11189;SDS011;5651;50.926;4.718;2022-10-16T15:21:54;5.75;;;1.98;;
11189;SDS011;5651;50.926;4.718;2022-10-16T15:24:20;4.90;;;2.00;;
11189;SDS011;5651;50.926;4.718;2022-10-16T15:26:45;5.75;;;2.03;;
11189;SDS011;5651;50.926;4.718;2022-10-16T15:29:12;8.55;;;2.10;;
11189;SDS011;5651;50.926;4.718;2022-10-16T15:31:38;4.80;;;2.28;;
11189;SDS011;5651;50.926;4.718;2022-10-16T15:34:04;8.45;;;4.60;;
11189;SDS011;5651;50.926;4.718;2022-10-16T15:36:32;5.13;;;1.73;;
11189;SDS011;5651;50.926;4.718;2022-10-16T15:39:17;4.53;;;1.42;;
11189;SDS011;5651;50.926;4.718;2022-10-16T15:41:48;3.53;;;1.50;;
11189;SDS011;5651;50.926;4.718;2022-10-16T15:44:19;6.00;;;1.77;;
11189;SDS011;5651;50.926;4.718;2022-10-16T15:46:46;4.32;;;1.50;;
11189;SDS011;5651;50.926;4.718;2022-10-16T15:49:12;6.63;;;1.85;;
11189;SDS011;5651;50.926;4.718;2022-10-16T15:51:39;5.20;;;1.65;;
11189;SDS011;5651;50.926;4.718;2022-10-16T15:54:06;6.55;;;2.00;;
11189;SDS011;5651;50.926;4.718;2022-10-16T15:56:32;5.78;;;2.00;;
11189;SDS011;5651;50.926;4.718;2022-10-16T15:58:59;6.30;;;2.45;;
11189;SDS011;5651;50.926;4.718;2022-10-16T16:01:26;4.55;;;2.55;;
11189;SDS011;5651;50.926;4.718;2022-10-16T16:03:53;6.53;;;2.83;;
11189;SDS011;5651;50.926;4.718;2022-10-16T16:06:19;5.75;;;2.40;;
11189;SDS011;5651;50.926;4.718;2022-10-16T16:08:45;5.57;;;2.70;;
11189;SDS011;5651;50.926;4.718;2022-10-16T16:11:12;7.68;;;3.88;;
11189;SDS011;5651;50.926;4.718;2022-10-16T16:13:40;6.82;;;2.85;;
11189;SDS011;5651;50.926;4.718;2022-10-16T16:16:11;5.25;;;2.55;;
11189;SDS011;5651;50.926;4.718;2022-10-16T16:18:38;5.05;;;2.17;;
11189;SDS011;5651;50.926;4.718;2022-10-16T16:21:05;6.70;;;2.67;;
11189;SDS011;5651;50.926;4.718;2022-10-16T16:23:31;5.30;;;2.38;;
11189;SDS011;5651;50.926;4.718;2022-10-16T16:26:08;7.32;;;2.80;;
11189;SDS011;5651;50.926;4.718;2022-10-16T16:28:51;10.55;;;4.70;;
11189;SDS011;5651;50.926;4.718;2022-10-16T16:31:18;6.35;;;3.10;;
11189;SDS011;5651;50.926;4.718;2022-10-16T16:33:44;5.85;;;2.67;;
11189;SDS011;5651;50.926;4.718;2022-10-16T16:36:10;8.65;;;3.33;;
11189;SDS011;5651;50.926;4.718;2022-10-16T16:38:37;8.23;;;2.97;;
11189;SDS011;5651;50.926;4.718;2022-10-16T16:41:12;6.68;;;2.85;;
11189;SDS011;5651;50.926;4.718;2022-10-16T16:43:39;7.65;;;3.00;;
11189;SDS011;5651;50.926;4.718;2022-10-16T16:46:05;11.18;;;3.35;;
11189;SDS011;5651;50.926;4.718;2022-10-16T16:48:31;7.05;;;3.97;;
11189;SDS011;5651;50.926;4.718;2022-10-16T16:51:07;8.93;;;3.85;;
11189;SDS011;5651;50.926;4.718;2022-10-16T16:53:48;10.30;;;4.70;;
11189;SDS011;5651;50.926;4.718;2022-10-16T16:56:16;9.50;;;4.55;;
11189;SDS011;5651;50.926;4.718;2022-10-16T16:58:50;10.48;;;5.28;;
11189;SDS011;5651;50.926;4.718;2022-10-16T17:01:18;16.80;;;6.88;;
11189;SDS011;5651;50.926;4.718;2022-10-16T17:03:44;17.52;;;8.15;;
11189;SDS011;5651;50.926;4.718;2022-10-16T17:06:11;15.25;;;8.38;;
11189;SDS011;5651;50.926;4.718;2022-10-16T17:08:38;11.65;;;4.95;;
11189;SDS011;5651;50.926;4.718;2022-10-16T17:11:04;10.18;;;4.55;;
11189;SDS011;5651;50.926;4.718;2022-10-16T17:13:32;9.05;;;4.00;;
11189;SDS011;5651;50.926;4.718;2022-10-16T17:16:05;9.63;;;4.75;;
11189;SDS011;5651;50.926;4.718;2022-10-16T17:18:32;9.35;;;5.40;;
11189;SDS011;5651;50.926;4.718;2022-10-16T17:20:59;13.75;;;6.85;;
11189;SDS011;5651;50.926;4.718;2022-10-16T17:23:26;13.00;;;6.20;;
11189;SDS011;5651;50.926;4.718;2022-10-16T17:25:53;12.27;;;5.30;;
11189;SDS011;5651;50.926;4.718;2022-10-16T17:28:19;10.20;;;4.57;;
11189;SDS011;5651;50.926;4.718;2022-10-16T17:30:44;9.30;;;4.80;;
11189;SDS011;5651;50.926;4.718;2022-10-16T17:33:11;8.95;;;5.47;;